Main page
METAR-TAF:

METAR-TAF

Airports :

RNAS Yeovilton (HMS Heron)

Yeovilton, England

latitude: 51-00N, longitude: 002-38W, elevation: 23 m

Current weather observation

The report was made 26 minutes ago, at 08:50 UTC
Wind 1 kt from the South
Temperature 6°C
Humidity 87%
Pressure 1036 hPa
Visibility 10 km or more
no clouds below 1500 m and no cumulonimbus

METAR: EGDY 260850Z 17001KT CAVOK 06/04 Q1036 BLU NOSIG

Time: 09:16 (09:16 UTC)

Forecast

The report was made 1 hour and 40 minutes ago, at 07:36 UTC
Forecast valid from 26 at 09 UTC to 26 at 18 UTC
Wind 4 kt from variable directions
Visibility 10 km or more
no clouds below 1500 m and no cumulonimbus
Becoming
from 26 at 13 UTC to 26 at 15 UTC
Wind 5 kt from the North/Northwest
Visibility 10 km or more
Few clouds at a height of 3000 ft

TAF: EGDY 260736Z 2609/2618 VRB04KT CAVOK BECMG 2613/2615 34005KT 9999 FEW030

Weather observations and forecasts of more than 4000 airports (METAR and TAF reports).

The available stations are represented by yellow and red dots on the map.

Hover mouse over dot to see the name of the station.

Then click to see weather observations and forecasts.

To change the map : click on the green buttons with a black cross to zoom in, on the green button with a dash to zoom out, or on the green arrows for adjacent maps.


METAR-TAF: